sensor_id;sensor_type;location;lat;lon;timestamp;P1;durP1;ratioP1;P2;durP2;ratioP2
32838;SDS011;19182;41.820;12.808;2022-12-07T00:01:07;38.83;;;19.48;;
32838;SDS011;19182;41.820;12.808;2022-12-07T00:03:37;43.53;;;19.27;;
32838;SDS011;19182;41.820;12.808;2022-12-07T00:06:05;45.03;;;17.92;;
32838;SDS011;19182;41.820;12.808;2022-12-07T00:08:33;35.55;;;17.17;;
32838;SDS011;19182;41.820;12.808;2022-12-07T00:11:03;42.50;;;17.83;;
32838;SDS011;19182;41.820;12.808;2022-12-07T00:13:33;28.58;;;17.90;;
32838;SDS011;19182;41.820;12.808;2022-12-07T00:16:04;45.17;;;17.55;;
32838;SDS011;19182;41.820;12.808;2022-12-07T00:18:32;40.20;;;16.63;;
32838;SDS011;19182;41.820;12.808;2022-12-07T00:23:35;42.33;;;18.23;;
32838;SDS011;19182;41.820;12.808;2022-12-07T00:26:04;45.38;;;18.88;;
32838;SDS011;19182;41.820;12.808;2022-12-07T00:28:47;36.78;;;17.70;;
32838;SDS011;19182;41.820;12.808;2022-12-07T00:31:15;32.20;;;17.15;;
32838;SDS011;19182;41.820;12.808;2022-12-07T00:33:42;36.40;;;17.75;;
32838;SDS011;19182;41.820;12.808;2022-12-07T00:36:10;33.17;;;18.30;;
32838;SDS011;19182;41.820;12.808;2022-12-07T00:38:40;34.85;;;17.88;;
32838;SDS011;19182;41.820;12.808;2022-12-07T00:41:13;33.83;;;16.92;;
32838;SDS011;19182;41.820;12.808;2022-12-07T00:43:43;39.30;;;17.08;;
32838;SDS011;19182;41.820;12.808;2022-12-07T00:46:10;30.70;;;15.85;;
32838;SDS011;19182;41.820;12.808;2022-12-07T00:48:37;36.30;;;15.23;;
32838;SDS011;19182;41.820;12.808;2022-12-07T00:51:04;46.38;;;14.82;;
32838;SDS011;19182;41.820;12.808;2022-12-07T00:53:30;32.75;;;16.10;;
32838;SDS011;19182;41.820;12.808;2022-12-07T00:56:04;34.40;;;16.23;;
32838;SDS011;19182;41.820;12.808;2022-12-07T00:58:39;43.35;;;17.10;;
32838;SDS011;19182;41.820;12.808;2022-12-07T01:01:07;28.60;;;15.13;;
32838;SDS011;19182;41.820;12.808;2022-12-07T01:03:34;25.40;;;13.05;;
32838;SDS011;19182;41.820;12.808;2022-12-07T01:06:01;27.08;;;13.93;;
32838;SDS011;19182;41.820;12.808;2022-12-07T01:08:28;35.47;;;15.10;;
32838;SDS011;19182;41.820;12.808;2022-12-07T01:11:04;34.35;;;15.43;;
32838;SDS011;19182;41.820;12.808;2022-12-07T01:13:33;36.60;;;14.27;;
32838;SDS011;19182;41.820;12.808;2022-12-07T01:16:01;36.85;;;14.50;;
32838;SDS011;19182;41.820;12.808;2022-12-07T01:18:29;39.13;;;14.48;;
32838;SDS011;19182;41.820;12.808;2022-12-07T01:20:57;31.98;;;13.90;;
32838;SDS011;19182;41.820;12.808;2022-12-07T01:23:30;35.60;;;15.80;;
32838;SDS011;19182;41.820;12.808;2022-12-07T01:25:57;32.05;;;13.82;;
32838;SDS011;19182;41.820;12.808;2022-12-07T01:28:25;30.40;;;14.02;;
32838;SDS011;19182;41.820;12.808;2022-12-07T01:31:07;30.23;;;13.50;;
32838;SDS011;19182;41.820;12.808;2022-12-07T01:33:36;26.75;;;13.65;;
32838;SDS011;19182;41.820;12.808;2022-12-07T01:38:42;25.98;;;11.43;;
32838;SDS011;19182;41.820;12.808;2022-12-07T01:41:09;28.90;;;12.68;;
32838;SDS011;19182;41.820;12.808;2022-12-07T01:43:35;28.67;;;11.63;;
32838;SDS011;19182;41.820;12.808;2022-12-07T01:46:02;26.27;;;11.70;;
32838;SDS011;19182;41.820;12.808;2022-12-07T01:48:37;23.38;;;10.63;;
32838;SDS011;19182;41.820;12.808;2022-12-07T01:51:06;24.58;;;10.73;;
32838;SDS011;19182;41.820;12.808;2022-12-07T01:56:02;27.75;;;11.25;;
32838;SDS011;19182;41.820;12.808;2022-12-07T01:58:30;25.38;;;11.48;;
32838;SDS011;19182;41.820;12.808;2022-12-07T02:00:56;33.83;;;12.65;;
32838;SDS011;19182;41.820;12.808;2022-12-07T02:03:41;20.00;;;11.10;;
32838;SDS011;19182;41.820;12.808;2022-12-07T02:06:08;28.05;;;10.60;;
32838;SDS011;19182;41.820;12.808;2022-12-07T02:08:38;24.88;;;10.32;;
32838;SDS011;19182;41.820;12.808;2022-12-07T02:11:05;29.08;;;10.02;;
32838;SDS011;19182;41.820;12.808;2022-12-07T02:13:35;19.77;;;9.38;;
32838;SDS011;19182;41.820;12.808;2022-12-07T02:27:32;25.48;;;10.30;;
32838;SDS011;19182;41.820;12.808;2022-12-07T02:30:06;24.52;;;9.52;;
32838;SDS011;19182;41.820;12.808;2022-12-07T02:35:46;21.10;;;9.35;;
32838;SDS011;19182;41.820;12.808;2022-12-07T02:41:43;24.80;;;9.82;;
32838;SDS011;19182;41.820;12.808;2022-12-07T02:44:23;26.15;;;10.13;;
32838;SDS011;19182;41.820;12.808;2022-12-07T02:49:22;16.63;;;8.55;;
32838;SDS011;19182;41.820;12.808;2022-12-07T02:51:50;27.10;;;10.23;;
32838;SDS011;19182;41.820;12.808;2022-12-07T02:54:18;27.15;;;10.23;;
32838;SDS011;19182;41.820;12.808;2022-12-07T03:02:31;23.70;;;9.88;;
32838;SDS011;19182;41.820;12.808;2022-12-07T03:15:53;23.35;;;9.95;;
32838;SDS011;19182;41.820;12.808;2022-12-07T03:18:25;30.65;;;11.40;;
32838;SDS011;19182;41.820;12.808;2022-12-07T03:20:56;28.38;;;10.57;;
32838;SDS011;19182;41.820;12.808;2022-12-07T03:23:27;26.00;;;10.88;;
32838;SDS011;19182;41.820;12.808;2022-12-07T03:25:56;20.52;;;10.13;;
32838;SDS011;19182;41.820;12.808;2022-12-07T03:28:26;21.08;;;10.38;;
32838;SDS011;19182;41.820;12.808;2022-12-07T03:31:10;23.85;;;10.55;;
32838;SDS011;19182;41.820;12.808;2022-12-07T03:33:49;23.38;;;10.15;;
32838;SDS011;19182;41.820;12.808;2022-12-07T03:39:31;33.03;;;10.65;;
32838;SDS011;19182;41.820;12.808;2022-12-07T03:42:03;28.95;;;9.70;;
32838;SDS011;19182;41.820;12.808;2022-12-07T03:44:32;22.85;;;9.43;;
32838;SDS011;19182;41.820;12.808;2022-12-07T03:49:31;22.67;;;9.35;;
32838;SDS011;19182;41.820;12.808;2022-12-07T03:52:03;21.65;;;9.38;;
32838;SDS011;19182;41.820;12.808;2022-12-07T03:54:47;23.30;;;9.85;;
32838;SDS011;19182;41.820;12.808;2022-12-07T03:57:24;25.95;;;11.02;;
32838;SDS011;19182;41.820;12.808;2022-12-07T03:59:51;20.88;;;9.50;;
32838;SDS011;19182;41.820;12.808;2022-12-07T04:02:20;24.88;;;8.57;;
32838;SDS011;19182;41.820;12.808;2022-12-07T04:04:50;18.90;;;10.52;;
32838;SDS011;19182;41.820;12.808;2022-12-07T04:07:16;24.90;;;9.50;;
32838;SDS011;19182;41.820;12.808;2022-12-07T04:09:42;24.52;;;9.57;;
32838;SDS011;19182;41.820;12.808;2022-12-07T04:12:07;31.73;;;9.65;;
32838;SDS011;19182;41.820;12.808;2022-12-07T04:14:34;21.70;;;9.18;;
32838;SDS011;19182;41.820;12.808;2022-12-07T04:17:01;29.85;;;10.82;;
32838;SDS011;19182;41.820;12.808;2022-12-07T04:19:31;21.17;;;8.93;;
32838;SDS011;19182;41.820;12.808;2022-12-07T04:22:06;26.27;;;11.02;;
32838;SDS011;19182;41.820;12.808;2022-12-07T04:24:32;25.35;;;10.20;;
32838;SDS011;19182;41.820;12.808;2022-12-07T04:26:58;25.45;;;10.63;;
32838;SDS011;19182;41.820;12.808;2022-12-07T04:29:25;23.95;;;10.57;;
32838;SDS011;19182;41.820;12.808;2022-12-07T04:31:51;19.83;;;9.27;;
32838;SDS011;19182;41.820;12.808;2022-12-07T04:34:17;23.58;;;8.85;;
32838;SDS011;19182;41.820;12.808;2022-12-07T04:36:45;28.38;;;9.50;;
32838;SDS011;19182;41.820;12.808;2022-12-07T04:39:24;23.80;;;8.65;;
32838;SDS011;19182;41.820;12.808;2022-12-07T04:41:52;18.27;;;8.82;;
32838;SDS011;19182;41.820;12.808;2022-12-07T04:44:18;29.92;;;9.38;;
32838;SDS011;19182;41.820;12.808;2022-12-07T04:46:46;21.63;;;9.98;;
32838;SDS011;19182;41.820;12.808;2022-12-07T04:49:12;17.77;;;9.35;;
32838;SDS011;19182;41.820;12.808;2022-12-07T04:51:38;18.52;;;9.43;;
32838;SDS011;19182;41.820;12.808;2022-12-07T04:54:04;24.83;;;10.82;;
32838;SDS011;19182;41.820;12.808;2022-12-07T04:56:31;30.25;;;12.15;;
32838;SDS011;19182;41.820;12.808;2022-12-07T04:58:57;20.27;;;10.48;;
32838;SDS011;19182;41.820;12.808;2022-12-07T05:01:24;23.05;;;10.68;;
32838;SDS011;19182;41.820;12.808;2022-12-07T05:03:49;27.80;;;12.35;;
32838;SDS011;19182;41.820;12.808;2022-12-07T05:06:15;28.77;;;10.25;;
32838;SDS011;19182;41.820;12.808;2022-12-07T05:08:41;23.15;;;10.18;;
32838;SDS011;19182;41.820;12.808;2022-12-07T05:11:08;24.73;;;9.52;;
32838;SDS011;19182;41.820;12.808;2022-12-07T05:13:35;21.80;;;9.00;;
32838;SDS011;19182;41.820;12.808;2022-12-07T05:16:01;28.95;;;9.82;;
32838;SDS011;19182;41.820;12.808;2022-12-07T05:18:28;26.58;;;10.75;;
32838;SDS011;19182;41.820;12.808;2022-12-07T05:20:54;25.38;;;10.52;;
32838;SDS011;19182;41.820;12.808;2022-12-07T05:23:19;31.23;;;11.45;;
32838;SDS011;19182;41.820;12.808;2022-12-07T05:25:46;26.17;;;11.13;;
32838;SDS011;19182;41.820;12.808;2022-12-07T05:28:13;25.23;;;11.25;;
32838;SDS011;19182;41.820;12.808;2022-12-07T05:30:38;22.42;;;9.40;;
32838;SDS011;19182;41.820;12.808;2022-12-07T05:33:04;23.70;;;10.52;;
32838;SDS011;19182;41.820;12.808;2022-12-07T05:35:30;23.35;;;10.43;;
32838;SDS011;19182;41.820;12.808;2022-12-07T05:37:56;19.73;;;9.00;;
32838;SDS011;19182;41.820;12.808;2022-12-07T05:40:22;29.45;;;9.95;;
32838;SDS011;19182;41.820;12.808;2022-12-07T05:42:48;30.15;;;10.45;;
32838;SDS011;19182;41.820;12.808;2022-12-07T05:45:14;24.50;;;9.07;;
32838;SDS011;19182;41.820;12.808;2022-12-07T05:47:39;27.58;;;10.18;;
32838;SDS011;19182;41.820;12.808;2022-12-07T05:50:05;25.38;;;10.98;;
32838;SDS011;19182;41.820;12.808;2022-12-07T05:52:33;19.15;;;9.90;;
32838;SDS011;19182;41.820;12.808;2022-12-07T05:55:01;18.77;;;9.52;;
32838;SDS011;19182;41.820;12.808;2022-12-07T05:57:27;24.08;;;9.02;;
32838;SDS011;19182;41.820;12.808;2022-12-07T05:59:52;20.65;;;9.35;;
32838;SDS011;19182;41.820;12.808;2022-12-07T06:02:18;22.30;;;9.15;;
32838;SDS011;19182;41.820;12.808;2022-12-07T06:04:45;19.77;;;8.55;;
32838;SDS011;19182;41.820;12.808;2022-12-07T06:07:12;17.50;;;8.65;;
32838;SDS011;19182;41.820;12.808;2022-12-07T06:09:39;23.38;;;9.23;;
32838;SDS011;19182;41.820;12.808;2022-12-07T06:12:05;22.70;;;9.60;;
32838;SDS011;19182;41.820;12.808;2022-12-07T06:14:49;29.38;;;9.82;;
32838;SDS011;19182;41.820;12.808;2022-12-07T06:17:16;21.02;;;8.90;;
32838;SDS011;19182;41.820;12.808;2022-12-07T06:19:42;26.65;;;11.40;;
32838;SDS011;19182;41.820;12.808;2022-12-07T06:22:08;24.77;;;9.52;;
32838;SDS011;19182;41.820;12.808;2022-12-07T06:24:36;28.17;;;9.35;;
32838;SDS011;19182;41.820;12.808;2022-12-07T06:27:03;20.45;;;9.77;;
32838;SDS011;19182;41.820;12.808;2022-12-07T06:29:29;22.52;;;11.23;;
32838;SDS011;19182;41.820;12.808;2022-12-07T06:31:57;21.77;;;12.18;;
32838;SDS011;19182;41.820;12.808;2022-12-07T06:34:23;32.70;;;11.85;;
32838;SDS011;19182;41.820;12.808;2022-12-07T06:36:50;30.73;;;11.18;;
32838;SDS011;19182;41.820;12.808;2022-12-07T06:39:20;20.85;;;10.45;;
32838;SDS011;19182;41.820;12.808;2022-12-07T06:41:48;20.40;;;10.65;;
32838;SDS011;19182;41.820;12.808;2022-12-07T06:44:14;25.98;;;10.32;;
32838;SDS011;19182;41.820;12.808;2022-12-07T06:46:41;30.50;;;10.73;;
32838;SDS011;19182;41.820;12.808;2022-12-07T06:49:08;26.15;;;10.38;;
32838;SDS011;19182;41.820;12.808;2022-12-07T06:51:34;25.15;;;10.95;;
32838;SDS011;19182;41.820;12.808;2022-12-07T06:54:01;24.38;;;10.27;;
32838;SDS011;19182;41.820;12.808;2022-12-07T06:56:28;25.02;;;10.45;;
32838;SDS011;19182;41.820;12.808;2022-12-07T06:58:54;30.63;;;11.30;;
32838;SDS011;19182;41.820;12.808;2022-12-07T07:01:20;24.27;;;11.15;;
32838;SDS011;19182;41.820;12.808;2022-12-07T07:03:46;27.67;;;12.77;;
32838;SDS011;19182;41.820;12.808;2022-12-07T07:06:12;25.30;;;11.27;;
32838;SDS011;19182;41.820;12.808;2022-12-07T07:08:41;27.80;;;12.32;;
32838;SDS011;19182;41.820;12.808;2022-12-07T07:11:07;32.05;;;12.90;;
32838;SDS011;19182;41.820;12.808;2022-12-07T07:13:33;34.63;;;12.52;;
32838;SDS011;19182;41.820;12.808;2022-12-07T07:15:59;23.35;;;12.13;;
32838;SDS011;19182;41.820;12.808;2022-12-07T07:18:25;24.65;;;11.57;;
32838;SDS011;19182;41.820;12.808;2022-12-07T07:20:51;22.83;;;11.32;;
32838;SDS011;19182;41.820;12.808;2022-12-07T07:23:19;25.15;;;11.30;;
32838;SDS011;19182;41.820;12.808;2022-12-07T07:25:46;27.60;;;12.25;;
32838;SDS011;19182;41.820;12.808;2022-12-07T07:28:12;30.25;;;13.40;;
32838;SDS011;19182;41.820;12.808;2022-12-07T07:30:38;27.35;;;11.85;;
32838;SDS011;19182;41.820;12.808;2022-12-07T07:33:04;26.65;;;12.05;;
32838;SDS011;19182;41.820;12.808;2022-12-07T07:35:30;22.15;;;10.85;;
32838;SDS011;19182;41.820;12.808;2022-12-07T07:37:57;26.75;;;10.43;;
32838;SDS011;19182;41.820;12.808;2022-12-07T07:40:24;17.95;;;9.73;;
32838;SDS011;19182;41.820;12.808;2022-12-07T07:42:50;21.23;;;9.45;;
32838;SDS011;19182;41.820;12.808;2022-12-07T07:45:18;17.77;;;7.28;;
32838;SDS011;19182;41.820;12.808;2022-12-07T07:47:44;12.48;;;6.97;;
32838;SDS011;19182;41.820;12.808;2022-12-07T07:50:10;17.67;;;6.90;;
32838;SDS011;19182;41.820;12.808;2022-12-07T07:52:36;16.77;;;6.03;;
32838;SDS011;19182;41.820;12.808;2022-12-07T07:55:02;21.48;;;7.10;;
32838;SDS011;19182;41.820;12.808;2022-12-07T07:57:28;18.45;;;6.05;;
32838;SDS011;19182;41.820;12.808;2022-12-07T07:59:54;17.10;;;5.05;;
32838;SDS011;19182;41.820;12.808;2022-12-07T08:02:20;17.92;;;5.30;;
32838;SDS011;19182;41.820;12.808;2022-12-07T08:04:47;17.25;;;5.50;;
32838;SDS011;19182;41.820;12.808;2022-12-07T08:07:13;17.60;;;4.60;;
32838;SDS011;19182;41.820;12.808;2022-12-07T08:09:39;10.68;;;5.00;;
32838;SDS011;19182;41.820;12.808;2022-12-07T08:12:05;17.48;;;4.75;;
32838;SDS011;19182;41.820;12.808;2022-12-07T08:14:32;16.95;;;4.35;;
32838;SDS011;19182;41.820;12.808;2022-12-07T08:16:58;22.90;;;4.80;;
32838;SDS011;19182;41.820;12.808;2022-12-07T08:19:23;13.05;;;4.45;;
32838;SDS011;19182;41.820;12.808;2022-12-07T08:21:49;16.63;;;4.93;;
32838;SDS011;19182;41.820;12.808;2022-12-07T08:24:15;17.08;;;5.25;;
32838;SDS011;19182;41.820;12.808;2022-12-07T08:26:41;12.35;;;4.43;;
32838;SDS011;19182;41.820;12.808;2022-12-07T08:29:07;12.18;;;4.00;;
32838;SDS011;19182;41.820;12.808;2022-12-07T08:31:34;17.17;;;3.92;;
32838;SDS011;19182;41.820;12.808;2022-12-07T08:34:00;18.40;;;4.60;;
32838;SDS011;19182;41.820;12.808;2022-12-07T08:36:26;15.40;;;4.40;;
32838;SDS011;19182;41.820;12.808;2022-12-07T08:38:52;15.27;;;4.25;;
32838;SDS011;19182;41.820;12.808;2022-12-07T08:41:17;13.23;;;4.03;;
32838;SDS011;19182;41.820;12.808;2022-12-07T08:43:43;12.50;;;4.35;;
32838;SDS011;19182;41.820;12.808;2022-12-07T08:48:49;14.95;;;4.57;;
32838;SDS011;19182;41.820;12.808;2022-12-07T08:51:18;19.00;;;5.03;;
32838;SDS011;19182;41.820;12.808;2022-12-07T08:53:46;13.50;;;4.13;;
32838;SDS011;19182;41.820;12.808;2022-12-07T08:56:12;12.10;;;4.90;;
32838;SDS011;19182;41.820;12.808;2022-12-07T08:58:38;15.27;;;4.93;;
32838;SDS011;19182;41.820;12.808;2022-12-07T09:01:05;12.25;;;5.30;;
32838;SDS011;19182;41.820;12.808;2022-12-07T09:03:34;11.00;;;4.88;;
32838;SDS011;19182;41.820;12.808;2022-12-07T09:06:01;18.70;;;6.18;;
32838;SDS011;19182;41.820;12.808;2022-12-07T09:08:31;21.53;;;5.90;;
32838;SDS011;19182;41.820;12.808;2022-12-07T09:11:01;13.50;;;5.65;;
32838;SDS011;19182;41.820;12.808;2022-12-07T09:13:27;13.85;;;5.30;;
32838;SDS011;19182;41.820;12.808;2022-12-07T09:15:53;15.25;;;5.70;;
32838;SDS011;19182;41.820;12.808;2022-12-07T09:18:19;22.63;;;6.07;;
32838;SDS011;19182;41.820;12.808;2022-12-07T09:20:44;14.93;;;5.85;;
32838;SDS011;19182;41.820;12.808;2022-12-07T09:23:10;12.93;;;4.78;;
32838;SDS011;19182;41.820;12.808;2022-12-07T09:25:37;14.32;;;5.72;;
32838;SDS011;19182;41.820;12.808;2022-12-07T09:28:02;19.67;;;5.90;;
32838;SDS011;19182;41.820;12.808;2022-12-07T09:30:28;20.17;;;5.00;;
32838;SDS011;19182;41.820;12.808;2022-12-07T09:32:59;12.38;;;5.10;;
32838;SDS011;19182;41.820;12.808;2022-12-07T09:35:25;14.15;;;5.78;;
32838;SDS011;19182;41.820;12.808;2022-12-07T09:37:51;18.80;;;6.43;;
32838;SDS011;19182;41.820;12.808;2022-12-07T09:40:17;16.80;;;6.32;;
32838;SDS011;19182;41.820;12.808;2022-12-07T09:42:51;16.58;;;5.53;;
32838;SDS011;19182;41.820;12.808;2022-12-07T09:45:23;17.13;;;4.13;;
32838;SDS011;19182;41.820;12.808;2022-12-07T09:47:54;17.52;;;5.80;;
32838;SDS011;19182;41.820;12.808;2022-12-07T09:50:24;14.35;;;5.15;;
32838;SDS011;19182;41.820;12.808;2022-12-07T09:52:52;19.10;;;5.25;;
32838;SDS011;19182;41.820;12.808;2022-12-07T09:55:27;17.00;;;4.38;;
32838;SDS011;19182;41.820;12.808;2022-12-07T09:57:57;11.18;;;4.82;;
32838;SDS011;19182;41.820;12.808;2022-12-07T10:02:55;17.85;;;4.68;;
32838;SDS011;19182;41.820;12.808;2022-12-07T10:05:26;17.08;;;4.63;;
32838;SDS011;19182;41.820;12.808;2022-12-07T10:07:55;17.77;;;4.05;;
32838;SDS011;19182;41.820;12.808;2022-12-07T10:10:33;18.15;;;4.45;;
32838;SDS011;19182;41.820;12.808;2022-12-07T10:13:01;15.10;;;4.80;;
32838;SDS011;19182;41.820;12.808;2022-12-07T10:18:33;11.25;;;3.42;;
32838;SDS011;19182;41.820;12.808;2022-12-07T10:21:17;17.63;;;3.40;;
32838;SDS011;19182;41.820;12.808;2022-12-07T10:24:03;12.30;;;3.75;;
32838;SDS011;19182;41.820;12.808;2022-12-07T10:26:34;13.20;;;3.53;;
32838;SDS011;19182;41.820;12.808;2022-12-07T10:37:46;15.07;;;3.58;;
32838;SDS011;19182;41.820;12.808;2022-12-07T10:40:26;12.63;;;4.03;;
32838;SDS011;19182;41.820;12.808;2022-12-07T10:43:16;14.23;;;3.35;;
32838;SDS011;19182;41.820;12.808;2022-12-07T10:54:12;14.30;;;3.63;;
32838;SDS011;19182;41.820;12.808;2022-12-07T11:08:15;10.50;;;3.50;;
32838;SDS011;19182;41.820;12.808;2022-12-07T11:13:22;13.93;;;3.70;;
32838;SDS011;19182;41.820;12.808;2022-12-07T11:16:02;15.63;;;3.45;;
32838;SDS011;19182;41.820;12.808;2022-12-07T11:18:49;13.23;;;3.28;;
32838;SDS011;19182;41.820;12.808;2022-12-07T11:21:44;11.10;;;3.13;;
32838;SDS011;19182;41.820;12.808;2022-12-07T11:27:01;14.55;;;3.30;;
32838;SDS011;19182;41.820;12.808;2022-12-07T11:34:51;16.52;;;2.35;;
32838;SDS011;19182;41.820;12.808;2022-12-07T11:37:32;16.42;;;3.65;;
32838;SDS011;19182;41.820;12.808;2022-12-07T11:40:00;12.45;;;3.47;;
32838;SDS011;19182;41.820;12.808;2022-12-07T11:42:51;7.25;;;2.70;;
32838;SDS011;19182;41.820;12.808;2022-12-07T11:45:31;12.95;;;3.63;;
32838;SDS011;19182;41.820;12.808;2022-12-07T11:48:03;13.00;;;3.30;;
32838;SDS011;19182;41.820;12.808;2022-12-07T11:50:51;9.50;;;3.35;;
32838;SDS011;19182;41.820;12.808;2022-12-07T11:53:21;13.48;;;3.75;;
32838;SDS011;19182;41.820;12.808;2022-12-07T11:58:42;18.13;;;4.50;;
32838;SDS011;19182;41.820;12.808;2022-12-07T12:01:14;20.90;;;4.50;;
32838;SDS011;19182;41.820;12.808;2022-12-07T12:14:19;18.35;;;4.43;;
32838;SDS011;19182;41.820;12.808;2022-12-07T12:17:36;19.42;;;4.80;;
32838;SDS011;19182;41.820;12.808;2022-12-07T12:22:51;12.85;;;3.45;;
32838;SDS011;19182;41.820;12.808;2022-12-07T12:25:29;14.20;;;4.32;;
32838;SDS011;19182;41.820;12.808;2022-12-07T12:28:03;13.32;;;5.10;;
32838;SDS011;19182;41.820;12.808;2022-12-07T12:30:31;17.40;;;5.18;;
32838;SDS011;19182;41.820;12.808;2022-12-07T12:33:03;17.50;;;6.18;;
32838;SDS011;19182;41.820;12.808;2022-12-07T12:35:35;27.20;;;6.05;;
32838;SDS011;19182;41.820;12.808;2022-12-07T12:40:55;19.52;;;5.40;;
32838;SDS011;19182;41.820;12.808;2022-12-07T12:51:42;15.27;;;5.70;;
32838;SDS011;19182;41.820;12.808;2022-12-07T12:54:14;20.67;;;5.85;;
32838;SDS011;19182;41.820;12.808;2022-12-07T12:59:32;15.05;;;6.60;;
32838;SDS011;19182;41.820;12.808;2022-12-07T13:04:59;17.13;;;5.82;;
32838;SDS011;19182;41.820;12.808;2022-12-07T13:23:22;21.80;;;8.75;;
32838;SDS011;19182;41.820;12.808;2022-12-07T13:34:32;35.22;;;13.85;;
32838;SDS011;19182;41.820;12.808;2022-12-07T13:37:00;30.40;;;12.98;;
32838;SDS011;19182;41.820;12.808;2022-12-07T13:39:44;28.80;;;12.32;;
32838;SDS011;19182;41.820;12.808;2022-12-07T13:42:34;25.27;;;11.80;;
32838;SDS011;19182;41.820;12.808;2022-12-07T13:45:01;29.77;;;12.73;;
32838;SDS011;19182;41.820;12.808;2022-12-07T13:48:14;19.48;;;9.82;;
32838;SDS011;19182;41.820;12.808;2022-12-07T14:08:29;27.55;;;10.30;;
32838;SDS011;19182;41.820;12.808;2022-12-07T14:10:56;21.40;;;8.75;;
32838;SDS011;19182;41.820;12.808;2022-12-07T14:15:52;22.98;;;9.63;;
32838;SDS011;19182;41.820;12.808;2022-12-07T14:18:26;24.67;;;9.80;;
32838;SDS011;19182;41.820;12.808;2022-12-07T14:23:36;20.02;;;9.90;;
32838;SDS011;19182;41.820;12.808;2022-12-07T14:26:12;24.35;;;10.75;;
32838;SDS011;19182;41.820;12.808;2022-12-07T14:28:40;28.70;;;9.15;;
32838;SDS011;19182;41.820;12.808;2022-12-07T14:31:11;24.98;;;10.18;;
32838;SDS011;19182;41.820;12.808;2022-12-07T14:33:39;24.10;;;11.98;;
32838;SDS011;19182;41.820;12.808;2022-12-07T14:36:05;30.13;;;13.45;;
32838;SDS011;19182;41.820;12.808;2022-12-07T14:38:33;31.88;;;13.38;;
32838;SDS011;19182;41.820;12.808;2022-12-07T14:40:59;31.85;;;14.32;;
32838;SDS011;19182;41.820;12.808;2022-12-07T14:43:45;32.42;;;14.65;;
32838;SDS011;19182;41.820;12.808;2022-12-07T14:46:11;29.50;;;14.82;;
32838;SDS011;19182;41.820;12.808;2022-12-07T14:48:36;34.45;;;15.45;;
32838;SDS011;19182;41.820;12.808;2022-12-07T14:51:03;37.95;;;14.95;;
32838;SDS011;19182;41.820;12.808;2022-12-07T14:53:30;25.92;;;11.95;;
32838;SDS011;19182;41.820;12.808;2022-12-07T14:56:00;28.35;;;12.35;;
32838;SDS011;19182;41.820;12.808;2022-12-07T14:58:26;29.58;;;11.73;;
32838;SDS011;19182;41.820;12.808;2022-12-07T15:00:52;24.58;;;11.57;;
32838;SDS011;19182;41.820;12.808;2022-12-07T15:03:17;23.25;;;10.40;;
32838;SDS011;19182;41.820;12.808;2022-12-07T15:05:43;23.90;;;7.28;;
32838;SDS011;19182;41.820;12.808;2022-12-07T15:08:10;17.52;;;8.20;;
32838;SDS011;19182;41.820;12.808;2022-12-07T15:10:37;26.33;;;8.35;;
32838;SDS011;19182;41.820;12.808;2022-12-07T15:13:05;24.20;;;9.60;;
32838;SDS011;19182;41.820;12.808;2022-12-07T15:15:50;28.90;;;9.93;;
32838;SDS011;19182;41.820;12.808;2022-12-07T15:18:17;18.15;;;7.70;;
32838;SDS011;19182;41.820;12.808;2022-12-07T15:20:44;22.27;;;8.60;;
32838;SDS011;19182;41.820;12.808;2022-12-07T15:23:10;20.52;;;7.00;;
32838;SDS011;19182;41.820;12.808;2022-12-07T15:25:36;18.33;;;6.97;;
32838;SDS011;19182;41.820;12.808;2022-12-07T15:28:05;19.38;;;6.45;;
32838;SDS011;19182;41.820;12.808;2022-12-07T15:30:31;27.58;;;8.43;;
32838;SDS011;19182;41.820;12.808;2022-12-07T15:32:56;22.05;;;7.60;;
32838;SDS011;19182;41.820;12.808;2022-12-07T15:35:22;24.80;;;9.32;;
32838;SDS011;19182;41.820;12.808;2022-12-07T15:37:47;23.27;;;9.82;;
32838;SDS011;19182;41.820;12.808;2022-12-07T15:40:13;22.13;;;9.07;;
32838;SDS011;19182;41.820;12.808;2022-12-07T15:42:40;27.15;;;9.25;;
32838;SDS011;19182;41.820;12.808;2022-12-07T15:45:06;23.65;;;9.43;;
32838;SDS011;19182;41.820;12.808;2022-12-07T15:47:37;27.33;;;10.85;;
32838;SDS011;19182;41.820;12.808;2022-12-07T15:50:06;22.60;;;8.90;;
32838;SDS011;19182;41.820;12.808;2022-12-07T15:52:37;20.08;;;8.02;;
32838;SDS011;19182;41.820;12.808;2022-12-07T15:55:03;24.58;;;8.93;;
32838;SDS011;19182;41.820;12.808;2022-12-07T15:57:29;25.08;;;9.50;;
32838;SDS011;19182;41.820;12.808;2022-12-07T16:00:02;28.50;;;11.18;;
32838;SDS011;19182;41.820;12.808;2022-12-07T16:02:28;24.52;;;11.68;;
32838;SDS011;19182;41.820;12.808;2022-12-07T16:04:54;27.77;;;10.45;;
32838;SDS011;19182;41.820;12.808;2022-12-07T16:07:20;30.35;;;11.90;;
32838;SDS011;19182;41.820;12.808;2022-12-07T16:09:46;32.75;;;12.85;;
32838;SDS011;19182;41.820;12.808;2022-12-07T16:12:14;31.98;;;12.57;;
32838;SDS011;19182;41.820;12.808;2022-12-07T16:14:40;25.60;;;12.05;;
32838;SDS011;19182;41.820;12.808;2022-12-07T16:17:07;29.83;;;11.75;;
32838;SDS011;19182;41.820;12.808;2022-12-07T16:19:34;22.05;;;12.43;;
32838;SDS011;19182;41.820;12.808;2022-12-07T16:22:00;31.30;;;15.07;;
32838;SDS011;19182;41.820;12.808;2022-12-07T16:24:26;29.48;;;13.57;;
32838;SDS011;19182;41.820;12.808;2022-12-07T16:26:52;40.08;;;14.82;;
32838;SDS011;19182;41.820;12.808;2022-12-07T16:29:19;35.97;;;13.75;;
32838;SDS011;19182;41.820;12.808;2022-12-07T16:31:46;41.45;;;15.35;;
32838;SDS011;19182;41.820;12.808;2022-12-07T16:34:13;28.67;;;16.30;;
32838;SDS011;19182;41.820;12.808;2022-12-07T16:36:39;25.80;;;14.80;;
32838;SDS011;19182;41.820;12.808;2022-12-07T16:39:05;34.38;;;16.13;;
32838;SDS011;19182;41.820;12.808;2022-12-07T16:41:31;41.17;;;17.08;;
32838;SDS011;19182;41.820;12.808;2022-12-07T16:44:00;54.15;;;25.55;;
32838;SDS011;19182;41.820;12.808;2022-12-07T16:46:31;33.45;;;15.98;;
32838;SDS011;19182;41.820;12.808;2022-12-07T16:48:58;38.03;;;17.80;;
32838;SDS011;19182;41.820;12.808;2022-12-07T16:51:24;35.63;;;19.23;;
32838;SDS011;19182;41.820;12.808;2022-12-07T16:53:50;38.88;;;20.35;;
32838;SDS011;19182;41.820;12.808;2022-12-07T16:56:18;40.88;;;23.05;;
32838;SDS011;19182;41.820;12.808;2022-12-07T16:58:43;44.88;;;20.55;;
32838;SDS011;19182;41.820;12.808;2022-12-07T17:01:13;42.88;;;21.83;;
32838;SDS011;19182;41.820;12.808;2022-12-07T17:03:43;53.63;;;24.83;;
32838;SDS011;19182;41.820;12.808;2022-12-07T17:06:17;32.20;;;18.98;;
32838;SDS011;19182;41.820;12.808;2022-12-07T17:08:44;47.22;;;22.25;;
32838;SDS011;19182;41.820;12.808;2022-12-07T17:11:13;102.05;;;51.40;;
32838;SDS011;19182;41.820;12.808;2022-12-07T17:13:42;69.22;;;32.92;;
32838;SDS011;19182;41.820;12.808;2022-12-07T17:16:38;53.95;;;28.08;;
32838;SDS011;19182;41.820;12.808;2022-12-07T17:19:04;57.72;;;29.17;;
32838;SDS011;19182;41.820;12.808;2022-12-07T17:21:31;119.95;;;61.67;;
32838;SDS011;19182;41.820;12.808;2022-12-07T17:24:00;103.90;;;53.05;;
32838;SDS011;19182;41.820;12.808;2022-12-07T17:26:27;115.30;;;54.65;;